createdAt,value
2023-09-03T00:02:26.742Z,2.22
2023-09-03T00:04:54.579Z,2.53
2023-09-03T00:07:29.370Z,2.95
2023-09-03T00:09:57.415Z,2.88
2023-09-03T00:12:45.565Z,2.42
2023-09-03T00:15:14.907Z,2.70
2023-09-03T00:17:52.277Z,3.05
2023-09-03T00:20:20.141Z,2.45
2023-09-03T00:22:48.068Z,2.65
2023-09-03T00:25:22.485Z,3.20
2023-09-03T00:27:50.483Z,2.65
2023-09-03T00:30:18.456Z,3.00
2023-09-03T00:32:54.522Z,2.45
2023-09-03T00:35:22.749Z,2.63
2023-09-03T00:37:50.690Z,3.08
2023-09-03T00:40:25.312Z,2.50
2023-09-03T00:42:53.104Z,2.42
2023-09-03T00:45:21.047Z,2.42
2023-09-03T00:47:57.352Z,2.25
2023-09-03T00:50:25.368Z,2.47
2023-09-03T00:52:53.407Z,2.95
2023-09-03T00:55:27.283Z,2.80
2023-09-03T00:57:56.697Z,2.55
2023-09-03T01:00:24.477Z,2.42
2023-09-03T01:03:02.468Z,2.47
2023-09-03T01:05:30.556Z,3.10
2023-09-03T01:08:00.993Z,2.67
2023-09-03T01:10:43.414Z,2.53
2023-09-03T01:13:32.356Z,2.67
2023-09-03T01:16:11.491Z,2.50
2023-09-03T01:18:42.841Z,2.20
2023-09-03T01:21:33.382Z,2.70
2023-09-03T01:24:19.443Z,2.40
2023-09-03T01:27:07.364Z,2.60
2023-09-03T01:29:37.047Z,2.40
2023-09-03T01:32:06.696Z,2.75
2023-09-03T01:34:42.590Z,2.53
2023-09-03T01:37:12.123Z,3.03
2023-09-03T01:39:40.661Z,2.40
2023-09-03T01:42:15.335Z,2.80
2023-09-03T01:44:44.553Z,2.85
2023-09-03T01:47:27.340Z,2.60
2023-09-03T01:50:02.636Z,2.70
2023-09-03T01:52:47.319Z,2.22
2023-09-03T01:55:18.513Z,2.70
2023-09-03T01:57:56.329Z,2.70
2023-09-03T02:00:25.895Z,2.60
2023-09-03T02:02:54.566Z,2.65
2023-09-03T02:05:29.466Z,2.38
2023-09-03T02:07:57.605Z,2.50
2023-09-03T02:10:25.443Z,2.88
2023-09-03T02:12:59.448Z,2.72
2023-09-03T02:15:35.369Z,2.47
2023-09-03T02:18:09.501Z,2.63
2023-09-03T02:20:37.337Z,2.17
2023-09-03T02:23:05.541Z,2.67
2023-09-03T02:25:40.287Z,2.40
2023-09-03T02:28:09.298Z,2.53
2023-09-03T02:30:38.624Z,2.65
2023-09-03T02:33:13.495Z,2.78
2023-09-03T02:35:41.296Z,2.13
2023-09-03T02:38:09.114Z,2.70
2023-09-03T02:40:44.564Z,2.40
2023-09-03T02:43:12.456Z,2.78
2023-09-03T02:45:41.693Z,2.42
2023-09-03T02:48:17.354Z,2.95
2023-09-03T02:50:45.193Z,2.85
2023-09-03T02:53:13.108Z,2.25
2023-09-03T02:55:47.343Z,2.40
2023-09-03T02:58:15.190Z,2.40
2023-09-03T03:00:44.320Z,2.30
2023-09-03T03:03:18.395Z,2.20
2023-09-03T03:05:46.212Z,2.08
2023-09-03T03:08:13.998Z,2.90
2023-09-03T03:10:48.442Z,2.42
2023-09-03T03:13:22.406Z,2.72
2023-09-03T03:15:59.417Z,2.38
2023-09-03T03:18:27.390Z,2.70
2023-09-03T03:20:57.029Z,2.80
2023-09-03T03:23:31.358Z,2.35
2023-09-03T03:25:59.183Z,2.42
2023-09-03T03:28:26.980Z,2.58
2023-09-03T03:31:03.444Z,2.30
2023-09-03T03:33:31.284Z,2.30
2023-09-03T03:35:59.176Z,2.42
2023-09-03T03:38:33.361Z,2.58
2023-09-03T03:41:11.441Z,2.58
2023-09-03T03:43:47.387Z,2.80
2023-09-03T03:46:23.433Z,2.45
2023-09-03T03:48:58.367Z,2.92
2023-09-03T03:51:26.184Z,2.13
2023-09-03T03:53:53.980Z,2.05
2023-09-03T03:56:28.332Z,2.45
2023-09-03T03:58:56.115Z,2.28
2023-09-03T04:01:25.766Z,2.00
2023-09-03T04:04:05.469Z,2.33
2023-09-03T04:06:33.921Z,2.30
2023-09-03T04:09:01.768Z,2.17
2023-09-03T04:11:36.420Z,2.90
2023-09-03T04:14:10.463Z,2.58
2023-09-03T04:16:46.593Z,1.98
2023-09-03T04:19:14.470Z,2.53
2023-09-03T04:21:42.278Z,2.50
2023-09-03T04:24:17.474Z,2.20
2023-09-03T04:26:45.254Z,2.53
2023-09-03T04:29:13.067Z,2.92
2023-09-03T04:31:48.336Z,2.08
2023-09-03T04:34:16.174Z,2.17
2023-09-03T04:36:43.973Z,3.00
2023-09-03T04:39:19.477Z,2.97
2023-09-03T04:41:47.566Z,2.45
2023-09-03T04:44:15.451Z,2.33
2023-09-03T04:46:51.673Z,2.75
2023-09-03T04:49:19.503Z,2.42
2023-09-03T04:51:47.397Z,2.85
2023-09-03T04:54:21.508Z,2.20
2023-09-03T04:56:49.892Z,2.05
2023-09-03T04:59:17.730Z,2.55
2023-09-03T05:01:54.393Z,2.70
2023-09-03T05:04:22.426Z,2.22
2023-09-03T05:06:50.468Z,2.28
2023-09-03T05:09:25.654Z,2.22
2023-09-03T05:11:53.450Z,2.25
2023-09-03T05:14:34.396Z,3.08
2023-09-03T05:17:03.880Z,3.58
2023-09-03T05:19:32.136Z,2.88
2023-09-03T05:22:06.382Z,2.55
2023-09-03T05:24:34.353Z,2.17
2023-09-03T05:27:02.270Z,2.40
2023-09-03T05:29:36.515Z,2.88
2023-09-03T05:32:06.252Z,2.80
2023-09-03T05:34:34.270Z,2.45
2023-09-03T05:37:10.512Z,2.33
2023-09-03T05:39:38.430Z,2.30
2023-09-03T05:42:07.598Z,2.33
2023-09-03T05:44:42.457Z,2.33
2023-09-03T05:47:14.432Z,2.40
2023-09-03T05:49:42.217Z,2.38
2023-09-03T05:52:16.660Z,2.20
2023-09-03T05:54:44.468Z,2.50
2023-09-03T05:57:12.400Z,2.00
2023-09-03T05:59:46.369Z,2.10
2023-09-03T06:02:15.517Z,2.28
2023-09-03T06:04:43.314Z,2.17
2023-09-03T06:07:18.388Z,2.50
2023-09-03T06:09:46.735Z,2.40
2023-09-03T06:12:15.702Z,2.13
2023-09-03T06:14:50.376Z,1.90
2023-09-03T06:17:19.491Z,1.92
2023-09-03T06:19:49.949Z,2.30
2023-09-03T06:22:24.468Z,2.17
2023-09-03T06:24:52.488Z,2.42
2023-09-03T06:27:20.296Z,2.60
2023-09-03T06:29:54.397Z,2.38
2023-09-03T06:32:25.511Z,2.28
2023-09-03T06:35:07.483Z,2.45
2023-09-03T06:37:35.418Z,2.35
2023-09-03T06:40:03.931Z,2.20
2023-09-03T06:42:38.390Z,2.78
2023-09-03T06:45:07.878Z,2.30
2023-09-03T06:47:37.209Z,2.03
2023-09-03T06:50:11.423Z,2.00
2023-09-03T06:52:39.474Z,2.28
2023-09-03T06:55:08.170Z,1.98
2023-09-03T06:57:42.638Z,2.70
2023-09-03T07:00:12.460Z,2.60
2023-09-03T07:02:41.650Z,1.83
2023-09-03T07:05:16.507Z,2.42
2023-09-03T07:07:44.411Z,1.90
2023-09-03T07:10:12.279Z,2.00
2023-09-03T07:12:47.428Z,1.92
2023-09-03T07:15:22.084Z,2.00
2023-09-03T07:17:58.612Z,1.98
2023-09-03T07:20:26.468Z,1.50
2023-09-03T07:22:54.267Z,2.20
2023-09-03T07:25:29.407Z,2.40
2023-09-03T07:27:57.412Z,1.73
2023-09-03T07:30:25.319Z,1.80
2023-09-03T07:33:01.582Z,1.70
2023-09-03T07:35:32.220Z,2.22
2023-09-03T07:38:00.049Z,2.17
2023-09-03T07:40:36.420Z,2.15
2023-09-03T07:43:04.306Z,2.20
2023-09-03T07:45:32.104Z,1.77
2023-09-03T07:48:07.512Z,2.00
2023-09-03T07:50:35.362Z,2.03
2023-09-03T07:53:03.261Z,2.13
2023-09-03T07:55:38.470Z,1.80
2023-09-03T07:58:07.499Z,2.25
2023-09-03T08:00:35.573Z,1.88
2023-09-03T08:03:12.566Z,2.33
2023-09-03T08:05:40.562Z,1.73
2023-09-03T08:08:08.378Z,1.80
2023-09-03T08:10:42.492Z,1.73
2023-09-03T08:13:17.487Z,1.80
2023-09-03T08:16:00.572Z,1.83
2023-09-03T08:18:29.756Z,1.60
2023-09-03T08:20:58.082Z,1.60
2023-09-03T08:23:32.455Z,1.73
2023-09-03T08:26:02.765Z,2.38
2023-09-03T08:28:31.823Z,1.67
2023-09-03T08:31:06.459Z,1.85
2023-09-03T08:33:35.678Z,2.03
2023-09-03T08:36:03.531Z,1.90
2023-09-03T08:38:38.415Z,1.70
2023-09-03T08:41:06.247Z,1.42
2023-09-03T08:43:34.668Z,1.25
2023-09-03T08:46:15.504Z,1.40
2023-09-03T08:48:46.729Z,1.98
2023-09-03T08:51:22.446Z,1.70
2023-09-03T08:53:51.941Z,1.75
2023-09-03T08:56:20.317Z,1.52
2023-09-03T08:58:54.571Z,1.40
2023-09-03T09:01:24.128Z,1.13
2023-09-03T09:04:02.670Z,1.50
2023-09-03T09:06:31.849Z,1.55
2023-09-03T09:09:01.133Z,1.35
2023-09-03T09:11:42.562Z,1.40
2023-09-03T09:14:30.676Z,1.48
2023-09-03T09:17:05.632Z,1.45
2023-09-03T09:19:34.922Z,1.60
2023-09-03T09:22:02.741Z,1.55
2023-09-03T09:24:37.641Z,1.60
2023-09-03T09:27:15.198Z,1.50
2023-09-03T09:29:50.478Z,1.35
2023-09-03T09:32:20.406Z,1.48
2023-09-03T09:34:49.695Z,1.70
2023-09-03T09:37:24.461Z,1.35
2023-09-03T09:39:52.520Z,1.58
2023-09-03T09:42:20.640Z,1.95
2023-09-03T09:45:06.750Z,1.20
2023-09-03T09:47:34.670Z,1.30
2023-09-03T09:50:04.015Z,1.73
2023-09-03T09:52:43.479Z,1.25
2023-09-03T09:55:18.923Z,1.27
2023-09-03T09:57:58.467Z,1.85
2023-09-03T10:00:36.570Z,1.95
2023-09-03T10:03:12.732Z,1.27
2023-09-03T10:05:50.239Z,1.45
2023-09-03T10:08:25.746Z,1.40
2023-09-03T10:10:53.587Z,1.60
2023-09-03T10:13:41.464Z,1.40
2023-09-03T10:16:10.360Z,1.17
2023-09-03T10:18:52.492Z,1.27
2023-09-03T10:21:30.274Z,1.73
2023-09-03T10:24:17.511Z,1.80
2023-09-03T10:26:48.578Z,1.88
2023-09-03T10:29:29.799Z,1.85
2023-09-03T10:31:59.756Z,1.42
2023-09-03T10:34:34.607Z,1.15
2023-09-03T10:37:08.583Z,1.50
2023-09-03T10:39:43.588Z,1.45
2023-09-03T10:42:30.824Z,1.30
2023-09-03T10:45:06.489Z,1.75
2023-09-03T10:47:54.524Z,1.63
2023-09-03T10:50:49.690Z,1.40
2023-09-03T10:53:38.361Z,1.30
2023-09-03T10:56:21.646Z,1.50
2023-09-03T10:58:59.242Z,1.50
2023-09-03T11:01:38.630Z,1.80
2023-09-03T11:04:06.939Z,1.63
2023-09-03T11:06:36.052Z,2.00
2023-09-03T11:09:33.040Z,1.67
2023-09-03T11:12:04.090Z,1.70
2023-09-03T11:14:46.488Z,1.90
2023-09-03T11:17:14.962Z,1.73
2023-09-03T11:19:42.871Z,1.75
2023-09-03T11:22:17.517Z,1.70
2023-09-03T11:24:49.954Z,1.80
2023-09-03T11:27:24.469Z,1.85
2023-09-03T11:29:52.304Z,1.60
2023-09-03T11:32:42.491Z,2.20
2023-09-03T11:35:10.376Z,1.90
2023-09-03T11:37:38.278Z,1.60
2023-09-03T11:40:16.675Z,1.67
2023-09-03T11:42:46.142Z,1.80
2023-09-03T11:45:14.175Z,1.75
2023-09-03T11:47:48.497Z,1.77
2023-09-03T11:50:17.969Z,1.77
2023-09-03T11:52:55.528Z,1.63
2023-09-03T11:55:27.637Z,2.10
2023-09-03T11:58:02.492Z,1.75
2023-09-03T12:00:31.379Z,1.42
2023-09-03T12:03:00.836Z,1.95
2023-09-03T12:05:35.603Z,1.38
2023-09-03T12:08:04.155Z,1.90
2023-09-03T12:10:33.856Z,2.13
2023-09-03T12:13:09.781Z,1.98
2023-09-03T12:15:44.550Z,1.90
2023-09-03T12:18:19.603Z,1.73
2023-09-03T12:20:48.366Z,1.90
2023-09-03T12:23:17.334Z,1.77
2023-09-03T12:25:53.599Z,1.75
2023-09-03T12:28:34.451Z,1.98
2023-09-03T12:31:09.717Z,2.08
2023-09-03T12:33:49.726Z,2.10
2023-09-03T12:36:25.551Z,1.80
2023-09-03T12:38:56.869Z,2.08
2023-09-03T12:41:34.509Z,1.70
2023-09-03T12:44:07.217Z,2.00
2023-09-03T12:46:42.858Z,2.15
2023-09-03T12:49:11.064Z,2.25
2023-09-03T12:51:40.758Z,2.35
2023-09-03T12:54:15.661Z,1.75
2023-09-03T12:56:44.832Z,1.80
2023-09-03T12:59:13.052Z,2.22
2023-09-03T13:01:48.676Z,1.92
2023-09-03T13:04:16.861Z,2.15
2023-09-03T13:06:44.716Z,1.90
2023-09-03T13:09:19.595Z,2.10
2023-09-03T13:11:48.717Z,1.80
2023-09-03T13:14:36.594Z,2.03
2023-09-03T13:17:04.786Z,2.00
2023-09-03T13:19:32.562Z,1.90
2023-09-03T13:22:06.645Z,2.20
2023-09-03T13:24:34.494Z,2.10
2023-09-03T13:27:04.409Z,2.30
2023-09-03T13:29:38.554Z,2.15
2023-09-03T13:32:06.618Z,2.20
2023-09-03T13:34:34.463Z,2.08
2023-09-03T13:37:08.637Z,2.05
2023-09-03T13:39:36.503Z,2.38
2023-09-03T13:42:05.952Z,2.10
2023-09-03T13:44:40.654Z,2.10
2023-09-03T13:47:08.684Z,1.85
2023-09-03T13:49:36.524Z,1.85
2023-09-03T13:52:11.542Z,1.90
2023-09-03T13:54:39.366Z,1.60
2023-09-03T13:57:08.732Z,2.00
2023-09-03T13:59:43.553Z,1.98
2023-09-03T14:02:11.435Z,1.77
2023-09-03T14:04:39.295Z,2.22
2023-09-03T14:07:13.553Z,1.85
2023-09-03T14:09:41.430Z,1.90
2023-09-03T14:12:10.797Z,1.70
2023-09-03T14:14:45.730Z,1.73
2023-09-03T14:17:20.606Z,2.08
2023-09-03T14:19:55.548Z,2.00
2023-09-03T14:22:23.369Z,1.73
2023-09-03T14:24:51.291Z,1.55
2023-09-03T14:27:33.582Z,2.13
2023-09-03T14:30:01.530Z,1.92
2023-09-03T14:32:29.470Z,2.10
2023-09-03T14:35:05.680Z,2.22
2023-09-03T14:37:33.818Z,2.17
2023-09-03T14:40:01.760Z,1.85
2023-09-03T14:42:37.525Z,2.03
2023-09-03T14:45:06.073Z,2.20
2023-09-03T14:47:34.193Z,2.65
2023-09-03T14:50:08.666Z,1.73
2023-09-03T14:52:36.487Z,2.10
2023-09-03T14:55:04.712Z,1.80
2023-09-03T14:57:40.701Z,1.95
2023-09-03T15:00:10.204Z,1.75
2023-09-03T15:02:38.213Z,1.70
2023-09-03T15:05:13.718Z,2.33
2023-09-03T15:07:41.941Z,2.10
2023-09-03T15:10:10.740Z,1.98
2023-09-03T15:12:46.592Z,2.00
2023-09-03T15:15:21.624Z,2.08
2023-09-03T15:17:55.738Z,2.08
2023-09-03T15:20:23.727Z,2.10
2023-09-03T15:22:51.779Z,1.80
2023-09-03T15:25:26.712Z,2.00
2023-09-03T15:27:55.896Z,2.20
2023-09-03T15:30:23.976Z,2.25
2023-09-03T15:32:59.899Z,1.90
2023-09-03T15:35:29.480Z,1.75
2023-09-03T15:37:57.399Z,1.90
2023-09-03T15:40:31.633Z,1.98
2023-09-03T15:43:00.953Z,2.17
2023-09-03T15:45:39.775Z,1.92
2023-09-03T15:48:08.599Z,1.88
2023-09-03T15:50:48.592Z,2.05
2023-09-03T15:53:16.799Z,2.28
2023-09-03T15:55:44.881Z,2.47
2023-09-03T15:58:20.898Z,2.05
2023-09-03T16:00:48.950Z,1.83
2023-09-03T16:03:16.957Z,2.15
2023-09-03T16:05:53.807Z,2.40
2023-09-03T16:08:21.930Z,1.95
2023-09-03T16:10:51.165Z,2.28
2023-09-03T16:13:26.696Z,2.05
2023-09-03T16:16:22.591Z,1.98
2023-09-03T16:18:58.680Z,1.90
2023-09-03T16:21:27.572Z,2.05
2023-09-03T16:23:55.499Z,1.77
2023-09-03T16:26:29.568Z,1.90
2023-09-03T16:28:58.747Z,2.08
2023-09-03T16:31:26.581Z,2.17
2023-09-03T16:34:01.634Z,1.85
2023-09-03T16:36:29.549Z,1.80
2023-09-03T16:38:57.580Z,2.08
2023-09-03T16:41:35.320Z,2.10
2023-09-03T16:44:04.955Z,2.13
2023-09-03T16:46:39.760Z,2.03
2023-09-03T16:49:07.624Z,3.30
2023-09-03T16:51:46.604Z,2.67
2023-09-03T16:54:14.387Z,2.00
2023-09-03T16:56:42.486Z,2.20
2023-09-03T16:59:18.701Z,1.95
2023-09-03T17:01:46.559Z,2.35
2023-09-03T17:04:14.382Z,2.28
2023-09-03T17:06:48.668Z,1.90
2023-09-03T17:09:16.650Z,2.10
2023-09-03T17:11:44.426Z,2.10
2023-09-03T17:14:27.754Z,2.40
2023-09-03T17:17:06.655Z,1.77
2023-09-03T17:19:42.802Z,1.83
2023-09-03T17:22:10.771Z,1.90
2023-09-03T17:24:40.960Z,2.10
2023-09-03T17:27:15.820Z,2.20
2023-09-03T17:29:45.088Z,2.10
2023-09-03T17:32:12.987Z,2.33
2023-09-03T17:34:47.738Z,2.20
2023-09-03T17:37:15.589Z,2.38
2023-09-03T17:39:44.527Z,2.42
2023-09-03T17:42:18.621Z,2.47
2023-09-03T17:44:47.780Z,2.35
2023-09-03T17:47:15.633Z,2.63
2023-09-03T17:49:50.724Z,2.40
2023-09-03T17:52:18.567Z,2.58
2023-09-03T17:54:46.382Z,2.60
2023-09-03T17:57:20.621Z,2.80
2023-09-03T17:59:50.010Z,2.55
2023-09-03T18:02:18.054Z,2.63
2023-09-03T18:04:52.684Z,2.72
2023-09-03T18:07:20.479Z,3.13
2023-09-03T18:09:48.561Z,2.97
2023-09-03T18:12:22.629Z,3.00
2023-09-03T18:14:58.882Z,2.70
2023-09-03T18:17:33.788Z,2.63
2023-09-03T18:20:02.106Z,2.70
2023-09-03T18:22:29.933Z,2.70
2023-09-03T18:25:04.657Z,2.80
2023-09-03T18:27:32.466Z,2.97
2023-09-03T18:30:11.712Z,2.83
2023-09-03T18:32:39.529Z,3.28
2023-09-03T18:35:08.240Z,3.10
2023-09-03T18:37:42.684Z,3.10
2023-09-03T18:40:11.465Z,2.88
2023-09-03T18:42:39.371Z,2.97
2023-09-03T18:45:15.622Z,2.72
2023-09-03T18:47:43.492Z,2.90
2023-09-03T18:50:11.645Z,3.20
2023-09-03T18:52:45.747Z,3.00
2023-09-03T18:55:13.543Z,3.05
2023-09-03T18:57:41.501Z,2.88
2023-09-03T19:00:20.638Z,2.83
2023-09-03T19:02:48.450Z,3.15
2023-09-03T19:05:16.650Z,2.97
2023-09-03T19:07:50.781Z,3.33
2023-09-03T19:10:19.185Z,2.85
2023-09-03T19:12:47.096Z,3.03
2023-09-03T19:15:22.652Z,2.80
2023-09-03T19:17:50.553Z,3.15
2023-09-03T19:20:19.079Z,2.80
2023-09-03T19:22:53.712Z,2.78
2023-09-03T19:25:23.882Z,2.88
2023-09-03T19:27:51.782Z,3.60
2023-09-03T19:30:27.672Z,3.30
2023-09-03T19:32:56.104Z,3.55
2023-09-03T19:35:25.352Z,3.60
2023-09-03T19:37:59.767Z,3.60
2023-09-03T19:40:28.122Z,3.53
2023-09-03T19:42:56.029Z,3.45
2023-09-03T19:45:32.817Z,3.58
2023-09-03T19:48:18.990Z,4.32
2023-09-03T19:50:53.661Z,3.17
2023-09-03T19:53:21.776Z,3.28
2023-09-03T19:55:49.585Z,3.15
2023-09-03T19:58:24.913Z,3.70
2023-09-03T20:00:55.158Z,3.10
2023-09-03T20:03:23.718Z,4.15
2023-09-03T20:06:05.039Z,3.20
2023-09-03T20:08:33.067Z,3.53
2023-09-03T20:11:03.829Z,3.30
2023-09-03T20:13:38.848Z,3.33
2023-09-03T20:16:28.768Z,3.38
2023-09-03T20:19:03.956Z,3.38
2023-09-03T20:21:33.536Z,3.25
2023-09-03T20:24:03.379Z,3.53
2023-09-03T20:26:38.790Z,3.80
2023-09-03T20:29:06.627Z,3.50
2023-09-03T20:31:35.905Z,2.83
2023-09-03T20:34:10.727Z,3.22
2023-09-03T20:36:38.596Z,2.95
2023-09-03T20:39:07.104Z,3.20
2023-09-03T20:41:41.761Z,3.50
2023-09-03T20:44:09.608Z,2.95
2023-09-03T20:46:38.742Z,2.97
2023-09-03T20:49:13.720Z,3.13
2023-09-03T20:51:41.545Z,2.78
2023-09-03T20:54:09.506Z,3.22
2023-09-03T20:56:43.688Z,3.08
2023-09-03T20:59:11.510Z,3.05
2023-09-03T21:01:40.647Z,3.40
2023-09-03T21:04:14.825Z,3.10
2023-09-03T21:06:42.680Z,2.80
2023-09-03T21:09:10.616Z,3.00
2023-09-03T21:11:44.763Z,2.90
2023-09-03T21:14:12.592Z,3.08
2023-09-03T21:16:54.785Z,3.22
2023-09-03T21:19:22.664Z,3.25
2023-09-03T21:21:51.130Z,3.28
2023-09-03T21:24:25.766Z,3.30
2023-09-03T21:26:53.641Z,2.83
2023-09-03T21:29:21.534Z,3.60
2023-09-03T21:31:57.797Z,2.97
2023-09-03T21:34:25.730Z,3.25
2023-09-03T21:36:53.669Z,3.53
2023-09-03T21:39:27.890Z,3.42
2023-09-03T21:41:55.836Z,3.25
2023-09-03T21:44:23.682Z,3.40
2023-09-03T21:46:59.689Z,3.63
2023-09-03T21:49:27.612Z,3.70
2023-09-03T21:51:55.655Z,4.20
2023-09-03T21:54:29.676Z,4.28
2023-09-03T21:56:57.492Z,4.32
2023-09-03T21:59:25.384Z,4.10
2023-09-03T22:02:01.745Z,4.55
2023-09-03T22:04:29.549Z,5.00
2023-09-03T22:06:58.154Z,4.15
2023-09-03T22:09:34.676Z,4.47
2023-09-03T22:12:02.561Z,4.30
2023-09-03T22:14:43.813Z,4.72
2023-09-03T22:17:19.685Z,4.55
2023-09-03T22:19:53.717Z,4.82
2023-09-03T22:22:21.528Z,4.25
2023-09-03T22:24:49.327Z,4.25
2023-09-03T22:27:23.676Z,4.90
2023-09-03T22:29:51.576Z,4.32
2023-09-03T22:32:20.976Z,5.15
2023-09-03T22:34:55.810Z,5.03
2023-09-03T22:37:23.940Z,4.80
2023-09-03T22:39:51.755Z,5.30
2023-09-03T22:42:25.761Z,5.80
2023-09-03T22:44:53.608Z,5.43
2023-09-03T22:47:23.449Z,5.25
2023-09-03T22:49:57.690Z,4.80
2023-09-03T22:52:25.519Z,5.28
2023-09-03T22:54:53.419Z,5.03
2023-09-03T22:57:27.677Z,5.25
2023-09-03T22:59:55.476Z,5.47
2023-09-03T23:02:24.695Z,5.43
2023-09-03T23:04:58.680Z,4.82
2023-09-03T23:07:27.162Z,5.45
2023-09-03T23:09:54.979Z,5.05
2023-09-03T23:12:29.703Z,4.82
2023-09-03T23:15:04.731Z,5.13
2023-09-03T23:17:47.806Z,5.10
2023-09-03T23:20:15.848Z,5.45
2023-09-03T23:22:46.575Z,4.80
2023-09-03T23:25:20.821Z,6.18
2023-09-03T23:27:48.627Z,6.10
2023-09-03T23:30:16.451Z,5.30
2023-09-03T23:32:53.766Z,5.72
2023-09-03T23:35:21.640Z,6.10
2023-09-03T23:37:49.400Z,6.40
2023-09-03T23:40:24.800Z,6.20
2023-09-03T23:42:52.780Z,6.00
2023-09-03T23:45:20.925Z,6.50
2023-09-03T23:47:56.789Z,6.55
2023-09-03T23:50:24.697Z,6.68
2023-09-03T23:52:52.643Z,6.72
2023-09-03T23:55:26.993Z,7.07
2023-09-03T23:57:55.134Z,6.68
